sensor_id;sensor_type;location;lat;lon;timestamp;P1;durP1;ratioP1;P2;durP2;ratioP2
38117;SDS011;23928;47.562;7.508;2022-09-01T00:00:44;5.10;;;4.03;;
38117;SDS011;23928;47.562;7.508;2022-09-01T00:03:15;4.50;;;4.00;;
38117;SDS011;23928;47.562;7.508;2022-09-01T00:05:42;4.80;;;4.30;;
38117;SDS011;23928;47.562;7.508;2022-09-01T00:08:10;4.70;;;4.20;;
38117;SDS011;23928;47.562;7.508;2022-09-01T00:10:37;4.97;;;4.47;;
38117;SDS011;23928;47.562;7.508;2022-09-01T00:13:03;4.60;;;3.60;;
38117;SDS011;23928;47.562;7.508;2022-09-01T00:15:31;5.97;;;4.30;;
38117;SDS011;23928;47.562;7.508;2022-09-01T00:18:00;4.10;;;3.70;;
38117;SDS011;23928;47.562;7.508;2022-09-01T00:20:26;4.30;;;3.90;;
38117;SDS011;23928;47.562;7.508;2022-09-01T00:22:52;4.53;;;4.00;;
38117;SDS011;23928;47.562;7.508;2022-09-01T00:25:18;5.53;;;3.97;;
38117;SDS011;23928;47.562;7.508;2022-09-01T00:27:45;6.43;;;4.17;;
38117;SDS011;23928;47.562;7.508;2022-09-01T00:30:12;5.33;;;4.13;;
38117;SDS011;23928;47.562;7.508;2022-09-01T00:32:38;7.50;;;5.53;;
38117;SDS011;23928;47.562;7.508;2022-09-01T00:35:03;6.83;;;5.50;;
38117;SDS011;23928;47.562;7.508;2022-09-01T00:37:29;6.60;;;5.40;;
38117;SDS011;23928;47.562;7.508;2022-09-01T00:39:55;5.67;;;4.90;;
38117;SDS011;23928;47.562;7.508;2022-09-01T00:42:21;9.23;;;5.00;;
38117;SDS011;23928;47.562;7.508;2022-09-01T00:44:47;10.93;;;6.40;;
38117;SDS011;23928;47.562;7.508;2022-09-01T00:47:12;11.73;;;7.60;;
38117;SDS011;23928;47.562;7.508;2022-09-01T00:49:40;12.20;;;7.90;;
38117;SDS011;23928;47.562;7.508;2022-09-01T00:54:45;14.73;;;9.77;;
38117;SDS011;23928;47.562;7.508;2022-09-01T00:57:14;16.53;;;11.03;;
38117;SDS011;23928;47.562;7.508;2022-09-01T00:59:58;16.33;;;12.03;;
38117;SDS011;23928;47.562;7.508;2022-09-01T01:02:30;18.47;;;11.83;;
38117;SDS011;23928;47.562;7.508;2022-09-01T01:04:56;19.70;;;13.43;;
38117;SDS011;23928;47.562;7.508;2022-09-01T01:07:23;29.47;;;16.77;;
38117;SDS011;23928;47.562;7.508;2022-09-01T01:09:51;30.50;;;16.73;;
38117;SDS011;23928;47.562;7.508;2022-09-01T01:12:17;23.00;;;17.30;;
38117;SDS011;23928;47.562;7.508;2022-09-01T01:14:44;20.60;;;15.87;;
38117;SDS011;23928;47.562;7.508;2022-09-01T01:17:14;19.87;;;14.97;;
38117;SDS011;23928;47.562;7.508;2022-09-01T01:25:47;24.37;;;18.97;;
38117;SDS011;23928;47.562;7.508;2022-09-01T01:28:23;54.63;;;22.10;;
38117;SDS011;23928;47.562;7.508;2022-09-01T01:30:54;24.63;;;18.87;;
38117;SDS011;23928;47.562;7.508;2022-09-01T01:33:29;27.30;;;21.17;;
38117;SDS011;23928;47.562;7.508;2022-09-01T01:36:10;26.37;;;18.27;;
38117;SDS011;23928;47.562;7.508;2022-09-01T01:38:40;50.60;;;20.80;;
38117;SDS011;23928;47.562;7.508;2022-09-01T01:41:09;28.87;;;21.13;;
38117;SDS011;23928;47.562;7.508;2022-09-01T01:43:35;29.37;;;20.67;;
38117;SDS011;23928;47.562;7.508;2022-09-01T01:46:02;28.77;;;21.30;;
38117;SDS011;23928;47.562;7.508;2022-09-01T01:48:32;23.97;;;19.90;;
38117;SDS011;23928;47.562;7.508;2022-09-01T01:51:01;31.50;;;20.77;;
38117;SDS011;23928;47.562;7.508;2022-09-01T01:53:28;26.63;;;20.67;;
38117;SDS011;23928;47.562;7.508;2022-09-01T01:55:54;27.10;;;20.43;;
38117;SDS011;23928;47.562;7.508;2022-09-01T01:58:21;28.50;;;21.70;;
38117;SDS011;23928;47.562;7.508;2022-09-01T02:00:48;26.97;;;21.80;;
38117;SDS011;23928;47.562;7.508;2022-09-01T02:03:18;30.57;;;21.73;;
38117;SDS011;23928;47.562;7.508;2022-09-01T02:05:46;29.23;;;21.17;;
38117;SDS011;23928;47.562;7.508;2022-09-01T02:08:13;25.40;;;20.33;;
38117;SDS011;23928;47.562;7.508;2022-09-01T02:10:44;26.13;;;20.03;;
38117;SDS011;23928;47.562;7.508;2022-09-01T02:13:13;28.27;;;19.83;;
38117;SDS011;23928;47.562;7.508;2022-09-01T02:15:45;25.10;;;19.57;;
38117;SDS011;23928;47.562;7.508;2022-09-01T02:18:14;32.40;;;19.57;;
38117;SDS011;23928;47.562;7.508;2022-09-01T02:20:45;29.83;;;19.93;;
38117;SDS011;23928;47.562;7.508;2022-09-01T02:23:13;24.77;;;19.20;;
38117;SDS011;23928;47.562;7.508;2022-09-01T02:25:44;23.90;;;19.30;;
38117;SDS011;23928;47.562;7.508;2022-09-01T02:28:11;23.73;;;19.13;;
38117;SDS011;23928;47.562;7.508;2022-09-01T02:30:40;24.43;;;18.50;;
38117;SDS011;23928;47.562;7.508;2022-09-01T02:33:06;25.07;;;18.20;;
38117;SDS011;23928;47.562;7.508;2022-09-01T02:35:33;23.23;;;18.60;;
38117;SDS011;23928;47.562;7.508;2022-09-01T02:38:01;25.80;;;18.50;;
38117;SDS011;23928;47.562;7.508;2022-09-01T02:40:29;23.77;;;17.87;;
38117;SDS011;23928;47.562;7.508;2022-09-01T02:42:56;26.30;;;18.43;;
38117;SDS011;23928;47.562;7.508;2022-09-01T02:45:23;24.60;;;18.63;;
38117;SDS011;23928;47.562;7.508;2022-09-01T02:47:49;22.33;;;18.23;;
38117;SDS011;23928;47.562;7.508;2022-09-01T02:50:16;23.90;;;19.07;;
38117;SDS011;23928;47.562;7.508;2022-09-01T02:52:43;20.50;;;17.00;;
38117;SDS011;23928;47.562;7.508;2022-09-01T02:55:10;23.63;;;18.70;;
38117;SDS011;23928;47.562;7.508;2022-09-01T02:57:35;27.10;;;19.57;;
38117;SDS011;23928;47.562;7.508;2022-09-01T03:00:02;23.93;;;18.53;;
38117;SDS011;23928;47.562;7.508;2022-09-01T03:02:44;21.13;;;17.37;;
38117;SDS011;23928;47.562;7.508;2022-09-01T03:05:12;23.10;;;17.97;;
38117;SDS011;23928;47.562;7.508;2022-09-01T03:07:40;19.40;;;16.80;;
38117;SDS011;23928;47.562;7.508;2022-09-01T03:10:06;20.33;;;17.27;;
38117;SDS011;23928;47.562;7.508;2022-09-01T03:12:33;20.47;;;17.70;;
38117;SDS011;23928;47.562;7.508;2022-09-01T03:14:59;19.20;;;16.50;;
38117;SDS011;23928;47.562;7.508;2022-09-01T03:17:25;19.90;;;15.80;;
38117;SDS011;23928;47.562;7.508;2022-09-01T03:19:51;19.03;;;15.43;;
38117;SDS011;23928;47.562;7.508;2022-09-01T03:22:18;17.70;;;15.83;;
38117;SDS011;23928;47.562;7.508;2022-09-01T03:24:44;16.90;;;15.10;;
38117;SDS011;23928;47.562;7.508;2022-09-01T03:27:10;18.57;;;16.00;;
38117;SDS011;23928;47.562;7.508;2022-09-01T03:29:36;17.83;;;15.93;;
38117;SDS011;23928;47.562;7.508;2022-09-01T03:32:02;16.80;;;14.90;;
38117;SDS011;23928;47.562;7.508;2022-09-01T03:34:28;18.17;;;15.13;;
38117;SDS011;23928;47.562;7.508;2022-09-01T03:36:58;16.23;;;14.53;;
38117;SDS011;23928;47.562;7.508;2022-09-01T03:39:24;18.90;;;15.77;;
38117;SDS011;23928;47.562;7.508;2022-09-01T03:41:50;20.43;;;15.70;;
38117;SDS011;23928;47.562;7.508;2022-09-01T03:44:16;17.13;;;14.77;;
38117;SDS011;23928;47.562;7.508;2022-09-01T03:46:42;16.90;;;14.37;;
38117;SDS011;23928;47.562;7.508;2022-09-01T03:49:08;16.33;;;13.30;;
38117;SDS011;23928;47.562;7.508;2022-09-01T03:51:39;14.33;;;12.80;;
38117;SDS011;23928;47.562;7.508;2022-09-01T03:54:06;13.93;;;12.43;;
38117;SDS011;23928;47.562;7.508;2022-09-01T03:56:33;13.37;;;11.97;;
38117;SDS011;23928;47.562;7.508;2022-09-01T03:58:59;12.03;;;10.17;;
38117;SDS011;23928;47.562;7.508;2022-09-01T04:01:28;13.47;;;12.07;;
38117;SDS011;23928;47.562;7.508;2022-09-01T04:04:02;14.57;;;12.23;;
38117;SDS011;23928;47.562;7.508;2022-09-01T04:06:28;14.43;;;12.30;;
38117;SDS011;23928;47.562;7.508;2022-09-01T04:08:54;14.67;;;13.17;;
38117;SDS011;23928;47.562;7.508;2022-09-01T04:11:26;14.13;;;12.67;;
38117;SDS011;23928;47.562;7.508;2022-09-01T04:13:53;22.07;;;13.53;;
38117;SDS011;23928;47.562;7.508;2022-09-01T04:19:07;13.40;;;12.10;;
38117;SDS011;23928;47.562;7.508;2022-09-01T04:21:44;13.43;;;12.13;;
38117;SDS011;23928;47.562;7.508;2022-09-01T04:24:10;13.50;;;12.07;;
38117;SDS011;23928;47.562;7.508;2022-09-01T04:26:39;21.10;;;14.20;;
38117;SDS011;23928;47.562;7.508;2022-09-01T04:29:06;17.90;;;14.33;;
38117;SDS011;23928;47.562;7.508;2022-09-01T04:31:33;18.90;;;15.17;;
38117;SDS011;23928;47.562;7.508;2022-09-01T04:34:02;18.07;;;14.53;;
38117;SDS011;23928;47.562;7.508;2022-09-01T04:36:33;19.47;;;13.77;;
38117;SDS011;23928;47.562;7.508;2022-09-01T04:39:02;21.67;;;14.60;;
38117;SDS011;23928;47.562;7.508;2022-09-01T04:41:33;28.97;;;15.43;;
38117;SDS011;23928;47.562;7.508;2022-09-01T04:44:00;18.37;;;12.60;;
38117;SDS011;23928;47.562;7.508;2022-09-01T04:46:30;15.80;;;13.20;;
38117;SDS011;23928;47.562;7.508;2022-09-01T04:48:59;12.87;;;11.53;;
38117;SDS011;23928;47.562;7.508;2022-09-01T04:51:33;14.27;;;11.97;;
38117;SDS011;23928;47.562;7.508;2022-09-01T04:54:02;22.80;;;12.87;;
38117;SDS011;23928;47.562;7.508;2022-09-01T04:56:31;16.40;;;13.40;;
38117;SDS011;23928;47.562;7.508;2022-09-01T04:59:00;19.07;;;13.03;;
38117;SDS011;23928;47.562;7.508;2022-09-01T05:01:28;17.83;;;12.97;;
38117;SDS011;23928;47.562;7.508;2022-09-01T05:03:53;16.17;;;13.47;;
38117;SDS011;23928;47.562;7.508;2022-09-01T05:06:25;19.30;;;14.13;;
38117;SDS011;23928;47.562;7.508;2022-09-01T05:08:52;16.00;;;12.17;;
38117;SDS011;23928;47.562;7.508;2022-09-01T05:11:20;12.90;;;11.10;;
38117;SDS011;23928;47.562;7.508;2022-09-01T05:13:48;21.77;;;14.00;;
38117;SDS011;23928;47.562;7.508;2022-09-01T05:16:18;15.93;;;13.13;;
38117;SDS011;23928;47.562;7.508;2022-09-01T05:18:45;12.53;;;11.20;;
38117;SDS011;23928;47.562;7.508;2022-09-01T05:21:14;14.03;;;12.53;;
38117;SDS011;23928;47.562;7.508;2022-09-01T05:23:42;13.23;;;11.93;;
38117;SDS011;23928;47.562;7.508;2022-09-01T05:26:16;16.10;;;14.40;;
38117;SDS011;23928;47.562;7.508;2022-09-01T05:28:45;14.93;;;13.33;;
38117;SDS011;23928;47.562;7.508;2022-09-01T05:31:12;15.73;;;14.03;;
38117;SDS011;23928;47.562;7.508;2022-09-01T05:33:38;16.60;;;14.47;;
38117;SDS011;23928;47.562;7.508;2022-09-01T05:36:10;15.93;;;14.00;;
38117;SDS011;23928;47.562;7.508;2022-09-01T05:38:36;15.43;;;13.80;;
38117;SDS011;23928;47.562;7.508;2022-09-01T05:41:05;16.27;;;14.00;;
38117;SDS011;23928;47.562;7.508;2022-09-01T05:43:33;14.93;;;13.13;;
38117;SDS011;23928;47.562;7.508;2022-09-01T05:46:00;15.43;;;13.10;;
38117;SDS011;23928;47.562;7.508;2022-09-01T05:48:30;16.17;;;14.13;;
38117;SDS011;23928;47.562;7.508;2022-09-01T05:50:59;16.20;;;13.40;;
38117;SDS011;23928;47.562;7.508;2022-09-01T05:53:25;16.33;;;13.63;;
38117;SDS011;23928;47.562;7.508;2022-09-01T05:55:55;20.67;;;14.70;;
38117;SDS011;23928;47.562;7.508;2022-09-01T05:58:24;16.23;;;14.27;;
38117;SDS011;23928;47.562;7.508;2022-09-01T06:00:52;16.57;;;13.77;;
38117;SDS011;23928;47.562;7.508;2022-09-01T06:03:20;20.10;;;14.67;;
38117;SDS011;23928;47.562;7.508;2022-09-01T06:05:46;19.27;;;14.43;;
38117;SDS011;23928;47.562;7.508;2022-09-01T06:08:17;18.03;;;14.63;;
38117;SDS011;23928;47.562;7.508;2022-09-01T06:10:44;17.73;;;13.53;;
38117;SDS011;23928;47.562;7.508;2022-09-01T06:13:10;16.27;;;14.03;;
38117;SDS011;23928;47.562;7.508;2022-09-01T06:15:40;16.67;;;13.33;;
38117;SDS011;23928;47.562;7.508;2022-09-01T06:18:07;15.10;;;12.83;;
38117;SDS011;23928;47.562;7.508;2022-09-01T06:20:42;15.43;;;12.83;;
38117;SDS011;23928;47.562;7.508;2022-09-01T06:23:10;14.17;;;12.30;;
38117;SDS011;23928;47.562;7.508;2022-09-01T06:25:41;14.07;;;11.60;;
38117;SDS011;23928;47.562;7.508;2022-09-01T06:28:17;12.10;;;10.07;;
38117;SDS011;23928;47.562;7.508;2022-09-01T06:30:45;14.83;;;11.47;;
38117;SDS011;23928;47.562;7.508;2022-09-01T06:33:12;13.60;;;11.67;;
38117;SDS011;23928;47.562;7.508;2022-09-01T06:35:38;14.43;;;11.40;;
38117;SDS011;23928;47.562;7.508;2022-09-01T06:38:06;12.23;;;10.00;;
38117;SDS011;23928;47.562;7.508;2022-09-01T06:40:33;12.20;;;10.30;;
38117;SDS011;23928;47.562;7.508;2022-09-01T06:43:00;14.13;;;10.53;;
38117;SDS011;23928;47.562;7.508;2022-09-01T06:45:26;13.50;;;11.50;;
38117;SDS011;23928;47.562;7.508;2022-09-01T06:47:52;16.00;;;11.30;;
38117;SDS011;23928;47.562;7.508;2022-09-01T06:50:20;11.47;;;10.27;;
38117;SDS011;23928;47.562;7.508;2022-09-01T06:52:48;12.63;;;10.40;;
38117;SDS011;23928;47.562;7.508;2022-09-01T06:55:14;11.93;;;9.33;;
38117;SDS011;23928;47.562;7.508;2022-09-01T06:57:40;13.73;;;10.63;;
38117;SDS011;23928;47.562;7.508;2022-09-01T07:00:12;14.50;;;10.40;;
38117;SDS011;23928;47.562;7.508;2022-09-01T07:02:45;12.57;;;10.03;;
38117;SDS011;23928;47.562;7.508;2022-09-01T07:05:13;9.37;;;8.13;;
38117;SDS011;23928;47.562;7.508;2022-09-01T07:07:50;9.97;;;8.73;;
38117;SDS011;23928;47.562;7.508;2022-09-01T07:10:20;11.53;;;9.37;;
38117;SDS011;23928;47.562;7.508;2022-09-01T07:12:47;11.80;;;9.70;;
38117;SDS011;23928;47.562;7.508;2022-09-01T07:15:14;11.97;;;9.47;;
38117;SDS011;23928;47.562;7.508;2022-09-01T07:17:42;11.73;;;10.03;;
38117;SDS011;23928;47.562;7.508;2022-09-01T07:20:13;10.57;;;8.80;;
38117;SDS011;23928;47.562;7.508;2022-09-01T07:22:39;9.23;;;7.93;;
38117;SDS011;23928;47.562;7.508;2022-09-01T07:25:06;9.63;;;7.27;;
38117;SDS011;23928;47.562;7.508;2022-09-01T07:27:32;9.40;;;7.60;;
38117;SDS011;23928;47.562;7.508;2022-09-01T07:29:57;8.13;;;7.00;;
38117;SDS011;23928;47.562;7.508;2022-09-01T07:32:23;9.17;;;6.53;;
38117;SDS011;23928;47.562;7.508;2022-09-01T07:34:49;7.90;;;7.00;;
38117;SDS011;23928;47.562;7.508;2022-09-01T07:37:16;8.53;;;6.20;;
38117;SDS011;23928;47.562;7.508;2022-09-01T07:39:42;6.23;;;5.33;;
38117;SDS011;23928;47.562;7.508;2022-09-01T07:42:11;7.33;;;6.03;;
38117;SDS011;23928;47.562;7.508;2022-09-01T07:44:37;8.20;;;6.40;;
38117;SDS011;23928;47.562;7.508;2022-09-01T07:47:03;6.77;;;6.07;;
38117;SDS011;23928;47.562;7.508;2022-09-01T07:49:33;7.03;;;5.87;;
38117;SDS011;23928;47.562;7.508;2022-09-01T07:52:02;6.30;;;5.73;;
38117;SDS011;23928;47.562;7.508;2022-09-01T07:54:29;6.17;;;5.43;;
38117;SDS011;23928;47.562;7.508;2022-09-01T07:56:55;7.03;;;5.90;;
38117;SDS011;23928;47.562;7.508;2022-09-01T07:59:21;8.33;;;5.63;;
38117;SDS011;23928;47.562;7.508;2022-09-01T08:01:47;6.50;;;5.90;;
38117;SDS011;23928;47.562;7.508;2022-09-01T08:04:13;6.10;;;5.23;;
38117;SDS011;23928;47.562;7.508;2022-09-01T08:06:39;6.30;;;5.07;;
38117;SDS011;23928;47.562;7.508;2022-09-01T08:09:04;7.30;;;5.63;;
38117;SDS011;23928;47.562;7.508;2022-09-01T08:11:31;7.03;;;5.20;;
38117;SDS011;23928;47.562;7.508;2022-09-01T08:13:57;7.23;;;5.90;;
38117;SDS011;23928;47.562;7.508;2022-09-01T08:16:28;6.10;;;4.67;;
38117;SDS011;23928;47.562;7.508;2022-09-01T08:18:55;7.13;;;5.47;;
38117;SDS011;23928;47.562;7.508;2022-09-01T08:21:22;5.53;;;4.93;;
38117;SDS011;23928;47.562;7.508;2022-09-01T08:23:51;6.00;;;5.40;;
38117;SDS011;23928;47.562;7.508;2022-09-01T08:26:20;10.20;;;5.77;;
38117;SDS011;23928;47.562;7.508;2022-09-01T08:28:48;8.97;;;5.10;;
38117;SDS011;23928;47.562;7.508;2022-09-01T08:31:15;7.07;;;5.23;;
38117;SDS011;23928;47.562;7.508;2022-09-01T08:33:42;5.63;;;4.50;;
38117;SDS011;23928;47.562;7.508;2022-09-01T08:36:10;4.83;;;4.33;;
38117;SDS011;23928;47.562;7.508;2022-09-01T08:38:37;5.43;;;4.90;;
38117;SDS011;23928;47.562;7.508;2022-09-01T08:41:04;5.20;;;4.40;;
38117;SDS011;23928;47.562;7.508;2022-09-01T08:46:24;4.60;;;4.07;;
38117;SDS011;23928;47.562;7.508;2022-09-01T08:49:00;5.00;;;4.33;;
38117;SDS011;23928;47.562;7.508;2022-09-01T08:51:42;4.90;;;4.40;;
38117;SDS011;23928;47.562;7.508;2022-09-01T08:56:50;4.97;;;3.83;;
38117;SDS011;23928;47.562;7.508;2022-09-01T08:59:20;6.90;;;4.10;;
38117;SDS011;23928;47.562;7.508;2022-09-01T09:01:52;4.30;;;3.90;;
38117;SDS011;23928;47.562;7.508;2022-09-01T09:07:21;3.97;;;3.63;;
38117;SDS011;23928;47.562;7.508;2022-09-01T09:15:10;3.97;;;3.43;;
38117;SDS011;23928;47.562;7.508;2022-09-01T09:17:51;4.67;;;4.07;;
38117;SDS011;23928;47.562;7.508;2022-09-01T09:20:25;4.17;;;3.77;;
38117;SDS011;23928;47.562;7.508;2022-09-01T09:22:51;4.13;;;3.73;;
38117;SDS011;23928;47.562;7.508;2022-09-01T09:25:18;5.37;;;3.57;;
38117;SDS011;23928;47.562;7.508;2022-09-01T09:27:45;3.43;;;3.13;;
38117;SDS011;23928;47.562;7.508;2022-09-01T09:35:30;5.70;;;3.67;;
38117;SDS011;23928;47.562;7.508;2022-09-01T09:43:46;5.40;;;3.90;;
38117;SDS011;23928;47.562;7.508;2022-09-01T09:54:22;3.17;;;2.97;;
38117;SDS011;23928;47.562;7.508;2022-09-01T09:59:38;3.93;;;3.17;;
38117;SDS011;23928;47.562;7.508;2022-09-01T10:02:21;3.60;;;3.30;;
38117;SDS011;23928;47.562;7.508;2022-09-01T10:04:49;3.63;;;3.33;;
38117;SDS011;23928;47.562;7.508;2022-09-01T10:07:37;5.70;;;3.13;;
38117;SDS011;23928;47.562;7.508;2022-09-01T10:10:06;4.97;;;3.43;;
38117;SDS011;23928;47.562;7.508;2022-09-01T10:12:52;3.50;;;3.20;;
38117;SDS011;23928;47.562;7.508;2022-09-01T10:15:19;4.10;;;3.70;;
38117;SDS011;23928;47.562;7.508;2022-09-01T10:17:48;4.00;;;3.30;;
38117;SDS011;23928;47.562;7.508;2022-09-01T10:20:19;5.67;;;3.40;;
38117;SDS011;23928;47.562;7.508;2022-09-01T10:22:47;3.23;;;2.93;;
38117;SDS011;23928;47.562;7.508;2022-09-01T10:25:35;3.53;;;3.23;;
38117;SDS011;23928;47.562;7.508;2022-09-01T10:28:06;4.83;;;3.30;;
38117;SDS011;23928;47.562;7.508;2022-09-01T10:30:37;3.43;;;3.17;;
38117;SDS011;23928;47.562;7.508;2022-09-01T10:33:06;4.90;;;3.23;;
38117;SDS011;23928;47.562;7.508;2022-09-01T10:35:34;3.20;;;2.90;;
38117;SDS011;23928;47.562;7.508;2022-09-01T10:38:05;3.20;;;2.90;;
38117;SDS011;23928;47.562;7.508;2022-09-01T10:45:49;3.37;;;3.07;;
38117;SDS011;23928;47.562;7.508;2022-09-01T10:54:01;3.30;;;3.00;;
38117;SDS011;23928;47.562;7.508;2022-09-01T10:56:38;3.10;;;2.80;;
38117;SDS011;23928;47.562;7.508;2022-09-01T11:04:14;2.90;;;2.70;;
38117;SDS011;23928;47.562;7.508;2022-09-01T11:09:15;3.23;;;2.93;;
38117;SDS011;23928;47.562;7.508;2022-09-01T11:14:27;5.43;;;3.10;;
38117;SDS011;23928;47.562;7.508;2022-09-01T11:27:57;4.63;;;3.40;;
38117;SDS011;23928;47.562;7.508;2022-09-01T11:33:17;3.57;;;2.67;;
38117;SDS011;23928;47.562;7.508;2022-09-01T11:36:00;3.40;;;3.10;;
38117;SDS011;23928;47.562;7.508;2022-09-01T11:38:31;2.90;;;2.70;;
38117;SDS011;23928;47.562;7.508;2022-09-01T11:41:06;3.47;;;2.93;;
38117;SDS011;23928;47.562;7.508;2022-09-01T11:43:32;3.63;;;2.70;;
38117;SDS011;23928;47.562;7.508;2022-09-01T11:46:09;3.30;;;3.00;;
38117;SDS011;23928;47.562;7.508;2022-09-01T11:48:45;3.20;;;2.90;;
38117;SDS011;23928;47.562;7.508;2022-09-01T11:51:12;2.97;;;2.77;;
38117;SDS011;23928;47.562;7.508;2022-09-01T11:53:39;3.23;;;3.03;;
38117;SDS011;23928;47.562;7.508;2022-09-01T11:56:17;3.20;;;2.90;;
38117;SDS011;23928;47.562;7.508;2022-09-01T11:58:45;4.23;;;3.00;;
38117;SDS011;23928;47.562;7.508;2022-09-01T12:03:54;3.47;;;2.90;;
38117;SDS011;23928;47.562;7.508;2022-09-01T12:06:21;2.90;;;2.60;;
38117;SDS011;23928;47.562;7.508;2022-09-01T12:09:07;2.73;;;2.53;;
38117;SDS011;23928;47.562;7.508;2022-09-01T12:11:33;3.17;;;2.87;;
38117;SDS011;23928;47.562;7.508;2022-09-01T12:14:09;3.60;;;2.83;;
38117;SDS011;23928;47.562;7.508;2022-09-01T12:16:36;2.93;;;2.70;;
38117;SDS011;23928;47.562;7.508;2022-09-01T12:19:06;3.07;;;2.80;;
38117;SDS011;23928;47.562;7.508;2022-09-01T12:26:44;3.13;;;2.83;;
38117;SDS011;23928;47.562;7.508;2022-09-01T12:29:10;3.20;;;2.73;;
38117;SDS011;23928;47.562;7.508;2022-09-01T12:31:41;3.03;;;2.80;;
38117;SDS011;23928;47.562;7.508;2022-09-01T12:34:58;3.60;;;3.10;;
38117;SDS011;23928;47.562;7.508;2022-09-01T12:39:33;2.60;;;2.40;;
38117;SDS011;23928;47.562;7.508;2022-09-01T12:44:46;2.90;;;2.60;;
38117;SDS011;23928;47.562;7.508;2022-09-01T12:52:58;2.90;;;2.53;;
38117;SDS011;23928;47.562;7.508;2022-09-01T12:55:29;2.60;;;2.40;;
38117;SDS011;23928;47.562;7.508;2022-09-01T12:58:07;2.67;;;2.47;;
38117;SDS011;23928;47.562;7.508;2022-09-01T13:00:36;2.30;;;2.20;;
38117;SDS011;23928;47.562;7.508;2022-09-01T13:03:42;2.40;;;2.23;;
38117;SDS011;23928;47.562;7.508;2022-09-01T13:06:50;2.30;;;2.20;;
38117;SDS011;23928;47.562;7.508;2022-09-01T13:09:17;3.37;;;2.80;;
38117;SDS011;23928;47.562;7.508;2022-09-01T13:11:43;2.80;;;2.60;;
38117;SDS011;23928;47.562;7.508;2022-09-01T13:14:16;3.77;;;2.47;;
38117;SDS011;23928;47.562;7.508;2022-09-01T13:16:42;3.50;;;2.10;;
38117;SDS011;23928;47.562;7.508;2022-09-01T13:19:08;4.30;;;2.27;;
38117;SDS011;23928;47.562;7.508;2022-09-01T13:21:34;2.20;;;2.00;;
38117;SDS011;23928;47.562;7.508;2022-09-01T13:24:02;4.70;;;2.20;;
38117;SDS011;23928;47.562;7.508;2022-09-01T13:26:29;2.57;;;2.30;;
38117;SDS011;23928;47.562;7.508;2022-09-01T13:28:56;4.07;;;2.07;;
38117;SDS011;23928;47.562;7.508;2022-09-01T13:31:22;3.20;;;2.00;;
38117;SDS011;23928;47.562;7.508;2022-09-01T13:33:48;2.33;;;1.80;;
38117;SDS011;23928;47.562;7.508;2022-09-01T13:36:13;3.87;;;2.23;;
38117;SDS011;23928;47.562;7.508;2022-09-01T13:38:39;2.40;;;2.20;;
38117;SDS011;23928;47.562;7.508;2022-09-01T13:41:05;3.93;;;2.13;;
38117;SDS011;23928;47.562;7.508;2022-09-01T13:43:32;6.00;;;2.60;;
38117;SDS011;23928;47.562;7.508;2022-09-01T13:45:58;2.60;;;2.40;;
38117;SDS011;23928;47.562;7.508;2022-09-01T13:48:24;3.33;;;2.43;;
38117;SDS011;23928;47.562;7.508;2022-09-01T13:50:52;2.60;;;2.40;;
38117;SDS011;23928;47.562;7.508;2022-09-01T13:53:18;2.53;;;2.30;;
38117;SDS011;23928;47.562;7.508;2022-09-01T13:55:45;1.97;;;1.87;;
38117;SDS011;23928;47.562;7.508;2022-09-01T13:58:11;2.57;;;2.10;;
38117;SDS011;23928;47.562;7.508;2022-09-01T14:00:39;2.20;;;2.00;;
38117;SDS011;23928;47.562;7.508;2022-09-01T14:03:09;2.57;;;2.17;;
38117;SDS011;23928;47.562;7.508;2022-09-01T14:05:39;4.23;;;2.10;;
38117;SDS011;23928;47.562;7.508;2022-09-01T14:08:07;2.40;;;2.20;;
38117;SDS011;23928;47.562;7.508;2022-09-01T14:10:37;2.27;;;2.07;;
38117;SDS011;23928;47.562;7.508;2022-09-01T14:13:05;2.17;;;1.97;;
38117;SDS011;23928;47.562;7.508;2022-09-01T14:15:31;2.03;;;1.70;;
38117;SDS011;23928;47.562;7.508;2022-09-01T14:17:58;1.93;;;1.80;;
38117;SDS011;23928;47.562;7.508;2022-09-01T14:20:29;1.90;;;1.80;;
38117;SDS011;23928;47.562;7.508;2022-09-01T14:22:58;1.97;;;1.87;;
38117;SDS011;23928;47.562;7.508;2022-09-01T14:25:24;1.97;;;1.87;;
38117;SDS011;23928;47.562;7.508;2022-09-01T14:27:50;2.77;;;2.10;;
38117;SDS011;23928;47.562;7.508;2022-09-01T14:30:21;2.40;;;2.20;;
38117;SDS011;23928;47.562;7.508;2022-09-01T14:32:48;2.00;;;1.90;;
38117;SDS011;23928;47.562;7.508;2022-09-01T14:35:16;2.60;;;2.00;;
38117;SDS011;23928;47.562;7.508;2022-09-01T14:37:43;2.47;;;2.00;;
38117;SDS011;23928;47.562;7.508;2022-09-01T14:40:09;2.87;;;1.90;;
38117;SDS011;23928;47.562;7.508;2022-09-01T14:42:39;2.23;;;1.60;;
38117;SDS011;23928;47.562;7.508;2022-09-01T14:45:08;2.03;;;1.90;;
38117;SDS011;23928;47.562;7.508;2022-09-01T14:47:35;1.90;;;1.80;;
38117;SDS011;23928;47.562;7.508;2022-09-01T14:50:02;1.80;;;1.70;;
38117;SDS011;23928;47.562;7.508;2022-09-01T14:52:28;2.47;;;2.10;;
38117;SDS011;23928;47.562;7.508;2022-09-01T14:54:54;3.37;;;1.93;;
38117;SDS011;23928;47.562;7.508;2022-09-01T14:57:20;1.87;;;1.77;;
38117;SDS011;23928;47.562;7.508;2022-09-01T14:59:45;1.83;;;1.70;;
38117;SDS011;23928;47.562;7.508;2022-09-01T15:02:12;2.00;;;1.90;;
38117;SDS011;23928;47.562;7.508;2022-09-01T15:04:38;2.83;;;1.90;;
38117;SDS011;23928;47.562;7.508;2022-09-01T15:07:03;3.33;;;2.10;;
38117;SDS011;23928;47.562;7.508;2022-09-01T15:09:30;3.40;;;1.90;;
38117;SDS011;23928;47.562;7.508;2022-09-01T15:11:56;2.83;;;1.97;;
38117;SDS011;23928;47.562;7.508;2022-09-01T15:14:22;2.60;;;1.73;;
38117;SDS011;23928;47.562;7.508;2022-09-01T15:16:48;1.90;;;1.80;;
38117;SDS011;23928;47.562;7.508;2022-09-01T15:19:14;2.23;;;1.87;;
38117;SDS011;23928;47.562;7.508;2022-09-01T15:21:41;2.13;;;1.93;;
38117;SDS011;23928;47.562;7.508;2022-09-01T15:24:08;2.23;;;2.03;;
38117;SDS011;23928;47.562;7.508;2022-09-01T15:26:34;2.40;;;2.20;;
38117;SDS011;23928;47.562;7.508;2022-09-01T15:29:01;2.23;;;1.77;;
38117;SDS011;23928;47.562;7.508;2022-09-01T15:31:27;1.93;;;1.73;;
38117;SDS011;23928;47.562;7.508;2022-09-01T15:33:56;2.20;;;2.00;;
38117;SDS011;23928;47.562;7.508;2022-09-01T15:36:24;1.80;;;1.70;;
38117;SDS011;23928;47.562;7.508;2022-09-01T15:38:52;2.60;;;2.30;;
38117;SDS011;23928;47.562;7.508;2022-09-01T15:41:22;1.80;;;1.70;;
38117;SDS011;23928;47.562;7.508;2022-09-01T15:43:53;2.10;;;1.80;;
38117;SDS011;23928;47.562;7.508;2022-09-01T15:46:19;2.53;;;2.10;;
38117;SDS011;23928;47.562;7.508;2022-09-01T15:48:45;3.03;;;1.80;;
38117;SDS011;23928;47.562;7.508;2022-09-01T15:51:25;2.20;;;2.00;;
38117;SDS011;23928;47.562;7.508;2022-09-01T15:53:57;2.30;;;2.10;;
38117;SDS011;23928;47.562;7.508;2022-09-01T15:56:29;2.43;;;2.00;;
38117;SDS011;23928;47.562;7.508;2022-09-01T15:58:55;2.43;;;1.90;;
38117;SDS011;23928;47.562;7.508;2022-09-01T16:01:23;2.03;;;1.80;;
38117;SDS011;23928;47.562;7.508;2022-09-01T16:03:49;2.10;;;1.90;;
38117;SDS011;23928;47.562;7.508;2022-09-01T16:06:14;1.60;;;1.50;;
38117;SDS011;23928;47.562;7.508;2022-09-01T16:08:40;1.77;;;1.67;;
38117;SDS011;23928;47.562;7.508;2022-09-01T16:11:06;1.80;;;1.70;;
38117;SDS011;23928;47.562;7.508;2022-09-01T16:13:34;2.33;;;1.90;;
38117;SDS011;23928;47.562;7.508;2022-09-01T16:18:33;2.23;;;1.80;;
38117;SDS011;23928;47.562;7.508;2022-09-01T16:24:08;3.70;;;2.13;;
38117;SDS011;23928;47.562;7.508;2022-09-01T16:26:36;2.43;;;2.23;;
38117;SDS011;23928;47.562;7.508;2022-09-01T16:29:08;2.07;;;1.97;;
38117;SDS011;23928;47.562;7.508;2022-09-01T16:31:38;1.93;;;1.80;;